sensor_id;sensor_type;location;lat;lon;timestamp;pressure;altitude;pressure_sealevel;temperature;humidity
23229;BME280;11783;50.350;6.576;2023-04-04T00:00:06;97185.66;;;1.93;73.04
23229;BME280;11783;50.350;6.576;2023-04-04T00:02:32;97187.63;;;1.91;73.43
23229;BME280;11783;50.350;6.576;2023-04-04T00:04:57;97183.72;;;1.87;72.59
23229;BME280;11783;50.350;6.576;2023-04-04T00:07:23;97185.50;;;1.78;72.21
23229;BME280;11783;50.350;6.576;2023-04-04T00:09:48;97183.53;;;1.56;72.72
23229;BME280;11783;50.350;6.576;2023-04-04T00:12:13;97181.72;;;1.65;73.88
23229;BME280;11783;50.350;6.576;2023-04-04T00:14:39;97172.41;;;1.62;73.03
23229;BME280;11783;50.350;6.576;2023-04-04T00:17:04;97169.94;;;1.61;73.33
23229;BME280;11783;50.350;6.576;2023-04-04T00:19:30;97172.72;;;1.59;74.31
23229;BME280;11783;50.350;6.576;2023-04-04T00:21:55;97174.84;;;1.56;73.48
23229;BME280;11783;50.350;6.576;2023-04-04T00:24:21;97171.91;;;1.50;74.20
23229;BME280;11783;50.350;6.576;2023-04-04T00:26:47;97168.94;;;1.45;73.86
23229;BME280;11783;50.350;6.576;2023-04-04T00:29:12;97168.13;;;1.45;74.40
23229;BME280;11783;50.350;6.576;2023-04-04T00:31:37;97175.16;;;1.44;73.98
23229;BME280;11783;50.350;6.576;2023-04-04T00:34:03;97170.44;;;1.40;74.73
23229;BME280;11783;50.350;6.576;2023-04-04T00:36:28;97168.47;;;1.34;74.77
23229;BME280;11783;50.350;6.576;2023-04-04T00:38:54;97165.19;;;1.32;74.95
23229;BME280;11783;50.350;6.576;2023-04-04T00:41:19;97172.38;;;1.30;75.87
23229;BME280;11783;50.350;6.576;2023-04-04T00:43:45;97156.66;;;1.30;74.38
23229;BME280;11783;50.350;6.576;2023-04-04T00:46:11;97161.22;;;1.28;74.88
23229;BME280;11783;50.350;6.576;2023-04-04T00:48:40;97158.94;;;1.25;74.06
23229;BME280;11783;50.350;6.576;2023-04-04T00:51:06;97163.03;;;1.19;74.51
23229;BME280;11783;50.350;6.576;2023-04-04T00:53:31;97165.81;;;1.17;75.19
23229;BME280;11783;50.350;6.576;2023-04-04T00:55:57;97167.13;;;1.13;75.67
23229;BME280;11783;50.350;6.576;2023-04-04T00:58:23;97163.69;;;1.13;75.58
23229;BME280;11783;50.350;6.576;2023-04-04T01:00:50;97164.66;;;1.12;74.75
23229;BME280;11783;50.350;6.576;2023-04-04T01:03:17;97161.38;;;1.10;75.84
23229;BME280;11783;50.350;6.576;2023-04-04T01:05:44;97149.75;;;1.04;75.36
23229;BME280;11783;50.350;6.576;2023-04-04T01:08:09;97153.34;;;1.03;75.80
23229;BME280;11783;50.350;6.576;2023-04-04T01:10:35;97154.81;;;1.06;75.08
23229;BME280;11783;50.350;6.576;2023-04-04T01:13:02;97156.63;;;1.05;74.93
23229;BME280;11783;50.350;6.576;2023-04-04T01:15:27;97160.06;;;1.06;75.59
23229;BME280;11783;50.350;6.576;2023-04-04T01:17:56;97154.00;;;1.05;75.14
23229;BME280;11783;50.350;6.576;2023-04-04T01:20:25;97148.94;;;1.04;74.45
23229;BME280;11783;50.350;6.576;2023-04-04T01:22:53;97147.94;;;0.97;72.76
23229;BME280;11783;50.350;6.576;2023-04-04T01:25:28;97148.94;;;0.96;74.84
23229;BME280;11783;50.350;6.576;2023-04-04T01:27:57;97152.53;;;0.95;74.70
23229;BME280;11783;50.350;6.576;2023-04-04T01:30:28;97141.53;;;0.91;74.16
23229;BME280;11783;50.350;6.576;2023-04-04T01:35:36;97142.84;;;0.87;74.93
23229;BME280;11783;50.350;6.576;2023-04-04T01:41:01;97141.38;;;0.84;75.25
23229;BME280;11783;50.350;6.576;2023-04-04T01:43:31;97140.53;;;0.84;75.01
23229;BME280;11783;50.350;6.576;2023-04-04T01:45:58;97139.56;;;0.85;76.34
23229;BME280;11783;50.350;6.576;2023-04-04T01:48:23;97142.00;;;0.78;75.43
23229;BME280;11783;50.350;6.576;2023-04-04T01:50:49;97142.81;;;0.79;75.56
23229;BME280;11783;50.350;6.576;2023-04-04T01:53:15;97145.59;;;0.77;75.58
23229;BME280;11783;50.350;6.576;2023-04-04T01:55:40;97139.56;;;0.77;75.86
23229;BME280;11783;50.350;6.576;2023-04-04T01:58:07;97142.16;;;0.77;75.46
23229;BME280;11783;50.350;6.576;2023-04-04T02:00:32;97139.56;;;0.77;75.00
23229;BME280;11783;50.350;6.576;2023-04-04T02:02:58;97138.75;;;0.76;76.17
23229;BME280;11783;50.350;6.576;2023-04-04T02:05:24;97134.47;;;0.75;75.27
23229;BME280;11783;50.350;6.576;2023-04-04T02:07:50;97140.00;;;0.72;75.01
23229;BME280;11783;50.350;6.576;2023-04-04T02:10:16;97128.72;;;0.72;75.13
23229;BME280;11783;50.350;6.576;2023-04-04T02:12:41;97136.72;;;0.70;76.19
23229;BME280;11783;50.350;6.576;2023-04-04T02:15:07;97141.16;;;0.70;76.19
23229;BME280;11783;50.350;6.576;2023-04-04T02:17:33;97144.91;;;0.67;74.65
23229;BME280;11783;50.350;6.576;2023-04-04T02:19:59;97148.66;;;0.65;76.10
23229;BME280;11783;50.350;6.576;2023-04-04T02:22:25;97142.94;;;0.61;76.46
23229;BME280;11783;50.350;6.576;2023-04-04T02:24:51;97144.56;;;0.62;75.66
23229;BME280;11783;50.350;6.576;2023-04-04T02:27:18;97141.13;;;0.62;76.14
23229;BME280;11783;50.350;6.576;2023-04-04T02:29:44;97147.66;;;0.57;75.14
23229;BME280;11783;50.350;6.576;2023-04-04T02:32:09;97144.22;;;0.57;76.46
23229;BME280;11783;50.350;6.576;2023-04-04T02:34:34;97146.03;;;0.56;76.05
23229;BME280;11783;50.350;6.576;2023-04-04T02:37:00;97134.06;;;0.54;75.74
23229;BME280;11783;50.350;6.576;2023-04-04T02:39:26;97138.47;;;0.53;76.34
23229;BME280;11783;50.350;6.576;2023-04-04T02:41:52;97133.56;;;0.50;76.58
23229;BME280;11783;50.350;6.576;2023-04-04T02:44:17;97135.19;;;0.51;75.75
23229;BME280;11783;50.350;6.576;2023-04-04T02:46:42;97131.75;;;0.51;76.72
23229;BME280;11783;50.350;6.576;2023-04-04T02:49:08;97135.53;;;0.48;76.18
23229;BME280;11783;50.350;6.576;2023-04-04T02:51:33;97129.47;;;0.48;75.80
23229;BME280;11783;50.350;6.576;2023-04-04T02:53:59;97135.84;;;0.45;75.29
23229;BME280;11783;50.350;6.576;2023-04-04T02:56:25;97123.59;;;0.46;76.79
23229;BME280;11783;50.350;6.576;2023-04-04T02:58:50;97118.66;;;0.43;76.57
23229;BME280;11783;50.350;6.576;2023-04-04T03:01:16;97112.63;;;0.42;76.41
23229;BME280;11783;50.350;6.576;2023-04-04T03:03:42;97119.00;;;0.40;76.35
23229;BME280;11783;50.350;6.576;2023-04-04T03:06:07;97113.22;;;0.36;76.70
23229;BME280;11783;50.350;6.576;2023-04-04T03:08:33;97114.06;;;0.37;76.18
23229;BME280;11783;50.350;6.576;2023-04-04T03:11:00;97106.53;;;0.34;76.06
23229;BME280;11783;50.350;6.576;2023-04-04T03:13:26;97108.47;;;0.32;75.82
23229;BME280;11783;50.350;6.576;2023-04-04T03:15:58;97114.84;;;0.29;76.37
23229;BME280;11783;50.350;6.576;2023-04-04T03:18:24;97115.81;;;0.28;76.17
23229;BME280;11783;50.350;6.576;2023-04-04T03:20:49;97115.16;;;0.26;75.77
23229;BME280;11783;50.350;6.576;2023-04-04T03:23:15;97114.34;;;0.25;75.71
23229;BME280;11783;50.350;6.576;2023-04-04T03:25:40;97110.41;;;0.21;75.89
23229;BME280;11783;50.350;6.576;2023-04-04T03:28:09;97110.56;;;0.20;75.74
23229;BME280;11783;50.350;6.576;2023-04-04T03:30:35;97097.78;;;0.17;76.53
23229;BME280;11783;50.350;6.576;2023-04-04T03:33:07;97103.84;;;0.17;76.63
23229;BME280;11783;50.350;6.576;2023-04-04T03:35:40;97103.19;;;0.15;74.84
23229;BME280;11783;50.350;6.576;2023-04-04T03:38:06;97096.63;;;0.11;75.54
23229;BME280;11783;50.350;6.576;2023-04-04T03:40:32;97090.91;;;0.08;75.55
23229;BME280;11783;50.350;6.576;2023-04-04T03:42:57;97089.41;;;0.05;75.56
23229;BME280;11783;50.350;6.576;2023-04-04T03:45:23;97094.97;;;0.02;76.13
23229;BME280;11783;50.350;6.576;2023-04-04T03:47:49;97090.56;;;0.03;75.54
23229;BME280;11783;50.350;6.576;2023-04-04T03:50:15;97091.69;;;0.00;76.50
23229;BME280;11783;50.350;6.576;2023-04-04T03:52:40;97082.34;;;-0.03;76.40
23229;BME280;11783;50.350;6.576;2023-04-04T03:55:06;97086.75;;;-0.03;76.45
23229;BME280;11783;50.350;6.576;2023-04-04T03:57:32;97092.25;;;-0.14;76.13
23229;BME280;11783;50.350;6.576;2023-04-04T03:59:57;97096.28;;;-0.20;75.77
23229;BME280;11783;50.350;6.576;2023-04-04T04:02:23;97094.81;;;-0.22;76.17
23229;BME280;11783;50.350;6.576;2023-04-04T04:04:48;97101.00;;;-0.23;76.17
23229;BME280;11783;50.350;6.576;2023-04-04T04:07:14;97095.94;;;-0.25;77.16
23229;BME280;11783;50.350;6.576;2023-04-04T04:09:39;97096.25;;;-0.28;76.77
23229;BME280;11783;50.350;6.576;2023-04-04T04:12:05;97097.38;;;-0.31;76.34
23229;BME280;11783;50.350;6.576;2023-04-04T04:14:30;97091.44;;;-0.41;75.51
23229;BME280;11783;50.350;6.576;2023-04-04T04:16:56;97098.09;;;-0.46;76.91
23229;BME280;11783;50.350;6.576;2023-04-04T04:19:21;97089.28;;;-0.45;77.03
23229;BME280;11783;50.350;6.576;2023-04-04T04:21:47;97094.66;;;-0.47;77.43
23229;BME280;11783;50.350;6.576;2023-04-04T04:24:12;97095.13;;;-0.51;77.09
23229;BME280;11783;50.350;6.576;2023-04-04T04:26:38;97092.00;;;-0.55;77.17
23229;BME280;11783;50.350;6.576;2023-04-04T04:29:03;97093.81;;;-0.55;77.86
23229;BME280;11783;50.350;6.576;2023-04-04T04:31:29;97091.78;;;-0.62;76.59
23229;BME280;11783;50.350;6.576;2023-04-04T04:33:54;97093.72;;;-0.64;77.77
23229;BME280;11783;50.350;6.576;2023-04-04T04:36:21;97093.56;;;-0.62;77.42
23229;BME280;11783;50.350;6.576;2023-04-04T04:38:47;97098.78;;;-0.62;77.46
23229;BME280;11783;50.350;6.576;2023-04-04T04:41:12;97103.84;;;-0.61;77.11
23229;BME280;11783;50.350;6.576;2023-04-04T04:43:37;97107.44;;;-0.62;77.59
23229;BME280;11783;50.350;6.576;2023-04-04T04:46:03;97099.59;;;-0.62;77.92
23229;BME280;11783;50.350;6.576;2023-04-04T04:48:28;97092.44;;;-0.59;78.04
23229;BME280;11783;50.350;6.576;2023-04-04T04:50:54;97092.13;;;-0.56;77.25
23229;BME280;11783;50.350;6.576;2023-04-04T04:53:19;97097.34;;;-0.56;77.38
23229;BME280;11783;50.350;6.576;2023-04-04T04:55:44;97105.50;;;-0.59;76.86
23229;BME280;11783;50.350;6.576;2023-04-04T04:58:11;97095.72;;;-0.57;77.80
23229;BME280;11783;50.350;6.576;2023-04-04T05:00:37;97090.34;;;-0.56;76.46
23229;BME280;11783;50.350;6.576;2023-04-04T05:03:03;97094.53;;;-0.63;77.62
23229;BME280;11783;50.350;6.576;2023-04-04T05:05:32;97090.44;;;-0.66;77.98
23229;BME280;11783;50.350;6.576;2023-04-04T05:08:00;97089.63;;;-0.66;78.07
23229;BME280;11783;50.350;6.576;2023-04-04T05:10:25;97092.91;;;-0.64;77.21
23229;BME280;11783;50.350;6.576;2023-04-04T05:12:50;97094.41;;;-0.79;77.57
23229;BME280;11783;50.350;6.576;2023-04-04T05:15:16;97096.06;;;-0.78;77.50
23229;BME280;11783;50.350;6.576;2023-04-04T05:17:41;97098.16;;;-0.82;78.10
23229;BME280;11783;50.350;6.576;2023-04-04T05:20:07;97094.56;;;-0.81;78.31
23229;BME280;11783;50.350;6.576;2023-04-04T05:22:32;97100.53;;;-0.88;77.83
23229;BME280;11783;50.350;6.576;2023-04-04T05:24:58;97092.31;;;-0.94;78.01
23229;BME280;11783;50.350;6.576;2023-04-04T05:27:23;97102.25;;;-0.97;77.68
23229;BME280;11783;50.350;6.576;2023-04-04T05:29:49;97110.16;;;-1.07;77.88
23229;BME280;11783;50.350;6.576;2023-04-04T05:32:14;97109.19;;;-1.06;78.45
23229;BME280;11783;50.350;6.576;2023-04-04T05:34:40;97115.22;;;-1.05;78.92
23229;BME280;11783;50.350;6.576;2023-04-04T05:37:05;97114.06;;;-1.84;80.70
23229;BME280;11783;50.350;6.576;2023-04-04T05:39:31;97119.25;;;-1.56;80.80
23229;BME280;11783;50.350;6.576;2023-04-04T05:41:56;97119.06;;;-1.45;80.22
23229;BME280;11783;50.350;6.576;2023-04-04T05:44:22;97111.41;;;-1.46;80.51
23229;BME280;11783;50.350;6.576;2023-04-04T05:46:47;97112.63;;;-1.50;80.60
23229;BME280;11783;50.350;6.576;2023-04-04T05:49:13;97120.41;;;-1.41;79.74
23229;BME280;11783;50.350;6.576;2023-04-04T05:51:38;97119.38;;;-1.48;80.17
23229;BME280;11783;50.350;6.576;2023-04-04T05:54:04;97124.44;;;-1.46;80.09
23229;BME280;11783;50.350;6.576;2023-04-04T05:56:32;97122.03;;;-1.40;80.03
23229;BME280;11783;50.350;6.576;2023-04-04T05:58:57;97111.31;;;-1.37;79.82
23229;BME280;11783;50.350;6.576;2023-04-04T06:01:23;97112.97;;;-1.36;80.51
23229;BME280;11783;50.350;6.576;2023-04-04T06:03:49;97116.25;;;-1.34;80.20
23229;BME280;11783;50.350;6.576;2023-04-04T06:06:15;97117.59;;;-1.30;79.65
23229;BME280;11783;50.350;6.576;2023-04-04T06:08:40;97120.44;;;-1.50;81.09
23229;BME280;11783;50.350;6.576;2023-04-04T06:11:05;97114.66;;;-1.44;81.05
23229;BME280;11783;50.350;6.576;2023-04-04T06:13:31;97115.69;;;-1.55;81.16
23229;BME280;11783;50.350;6.576;2023-04-04T06:15:56;97118.53;;;-1.48;81.03
23229;BME280;11783;50.350;6.576;2023-04-04T06:18:22;97119.06;;;-1.45;80.92
23229;BME280;11783;50.350;6.576;2023-04-04T06:20:47;97122.03;;;-1.40;80.63
23229;BME280;11783;50.350;6.576;2023-04-04T06:23:13;97118.16;;;-1.36;80.85
23229;BME280;11783;50.350;6.576;2023-04-04T06:25:38;97129.28;;;-1.34;80.15
23229;BME280;11783;50.350;6.576;2023-04-04T06:28:04;97122.00;;;-1.30;79.97
23229;BME280;11783;50.350;6.576;2023-04-04T06:30:29;97120.72;;;-1.26;79.65
23229;BME280;11783;50.350;6.576;2023-04-04T06:32:55;97128.94;;;-1.21;79.80
23229;BME280;11783;50.350;6.576;2023-04-04T06:35:21;97124.16;;;-1.26;79.69
23229;BME280;11783;50.350;6.576;2023-04-04T06:37:47;97130.19;;;-1.25;79.68
23229;BME280;11783;50.350;6.576;2023-04-04T06:40:13;97130.06;;;-1.24;79.30
23229;BME280;11783;50.350;6.576;2023-04-04T06:42:38;97130.72;;;-1.22;80.08
23229;BME280;11783;50.350;6.576;2023-04-04T06:45:04;97133.31;;;-1.22;79.86
23229;BME280;11783;50.350;6.576;2023-04-04T06:47:31;97135.25;;;-1.24;80.13
23229;BME280;11783;50.350;6.576;2023-04-04T06:49:56;97139.50;;;-1.23;80.18
23229;BME280;11783;50.350;6.576;2023-04-04T06:52:22;97145.84;;;-1.25;79.64
23229;BME280;11783;50.350;6.576;2023-04-04T06:54:49;97140.47;;;-1.24;79.51
23229;BME280;11783;50.350;6.576;2023-04-04T06:57:14;97147.34;;;-1.23;79.76
23229;BME280;11783;50.350;6.576;2023-04-04T06:59:39;97135.94;;;-1.22;79.97
23229;BME280;11783;50.350;6.576;2023-04-04T07:02:05;97135.78;;;-1.20;80.06
23229;BME280;11783;50.350;6.576;2023-04-04T07:04:31;97149.34;;;-1.16;80.79
23229;BME280;11783;50.350;6.576;2023-04-04T07:06:59;97143.38;;;-1.27;78.68
23229;BME280;11783;50.350;6.576;2023-04-04T07:09:25;97143.94;;;-1.33;79.30
23229;BME280;11783;50.350;6.576;2023-04-04T07:11:50;97140.75;;;-1.44;78.37
23229;BME280;11783;50.350;6.576;2023-04-04T07:14:16;97136.88;;;-1.40;78.70
23229;BME280;11783;50.350;6.576;2023-04-04T07:16:41;97134.81;;;-1.64;77.80
23229;BME280;11783;50.350;6.576;2023-04-04T07:19:07;97147.75;;;-1.45;79.43
23229;BME280;11783;50.350;6.576;2023-04-04T07:21:32;97139.41;;;-1.48;80.15
23229;BME280;11783;50.350;6.576;2023-04-04T07:23:58;97142.91;;;-1.40;78.39
23229;BME280;11783;50.350;6.576;2023-04-04T07:26:26;97144.41;;;-1.37;78.24
23229;BME280;11783;50.350;6.576;2023-04-04T07:28:52;97149.16;;;-1.33;79.72
23229;BME280;11783;50.350;6.576;2023-04-04T07:31:17;97152.19;;;-1.28;79.50
23229;BME280;11783;50.350;6.576;2023-04-04T07:33:43;97148.75;;;-1.28;77.60
23229;BME280;11783;50.350;6.576;2023-04-04T07:36:08;97150.47;;;-1.19;76.58
23229;BME280;11783;50.350;6.576;2023-04-04T07:38:34;97153.22;;;-1.20;78.26
23229;BME280;11783;50.350;6.576;2023-04-04T07:41:00;97158.25;;;-0.92;78.10
23229;BME280;11783;50.350;6.576;2023-04-04T07:43:25;97160.56;;;-0.53;74.70
23229;BME280;11783;50.350;6.576;2023-04-04T07:45:53;97152.09;;;-0.29;72.76
23229;BME280;11783;50.350;6.576;2023-04-04T07:48:19;97151.72;;;-0.34;72.40
23229;BME280;11783;50.350;6.576;2023-04-04T07:50:45;97158.22;;;0.14;79.01
23229;BME280;11783;50.350;6.576;2023-04-04T07:53:10;97151.63;;;0.36;71.85
23229;BME280;11783;50.350;6.576;2023-04-04T07:55:36;97160.09;;;0.64;71.47
23229;BME280;11783;50.350;6.576;2023-04-04T07:58:01;97157.88;;;0.77;69.88
23229;BME280;11783;50.350;6.576;2023-04-04T08:00:27;97154.13;;;0.79;70.52
23229;BME280;11783;50.350;6.576;2023-04-04T08:02:54;97157.28;;;0.99;68.38
23229;BME280;11783;50.350;6.576;2023-04-04T08:05:20;97154.69;;;1.24;67.94
23229;BME280;11783;50.350;6.576;2023-04-04T08:07:45;97153.75;;;0.74;65.39
23229;BME280;11783;50.350;6.576;2023-04-04T08:10:11;97153.34;;;0.53;67.61
23229;BME280;11783;50.350;6.576;2023-04-04T08:12:37;97159.69;;;0.84;65.92
23229;BME280;11783;50.350;6.576;2023-04-04T08:15:03;97162.19;;;0.94;65.69
23229;BME280;11783;50.350;6.576;2023-04-04T08:17:29;97156.72;;;0.79;65.81
23229;BME280;11783;50.350;6.576;2023-04-04T08:19:55;97153.22;;;0.63;66.13
23229;BME280;11783;50.350;6.576;2023-04-04T08:22:20;97163.56;;;1.31;71.66
23229;BME280;11783;50.350;6.576;2023-04-04T08:24:46;97161.59;;;1.73;65.04
23229;BME280;11783;50.350;6.576;2023-04-04T08:27:12;97164.19;;;1.81;68.79
23229;BME280;11783;50.350;6.576;2023-04-04T08:29:39;97158.78;;;2.07;63.06
23229;BME280;11783;50.350;6.576;2023-04-04T08:32:04;97150.06;;;2.15;60.76
23229;BME280;11783;50.350;6.576;2023-04-04T08:34:30;97160.19;;;2.34;65.44
23229;BME280;11783;50.350;6.576;2023-04-04T08:36:56;97147.47;;;2.07;62.12
23229;BME280;11783;50.350;6.576;2023-04-04T08:39:22;97146.47;;;2.08;61.82
23229;BME280;11783;50.350;6.576;2023-04-04T08:41:53;97142.91;;;1.85;59.38
23229;BME280;11783;50.350;6.576;2023-04-04T08:44:23;97150.03;;;2.31;61.25
23229;BME280;11783;50.350;6.576;2023-04-04T08:46:50;97154.06;;;2.89;62.26
23229;BME280;11783;50.350;6.576;2023-04-04T08:49:17;97147.47;;;2.93;60.19
23229;BME280;11783;50.350;6.576;2023-04-04T08:51:48;97156.44;;;3.30;59.14
23229;BME280;11783;50.350;6.576;2023-04-04T08:54:16;97144.19;;;3.22;58.86
23229;BME280;11783;50.350;6.576;2023-04-04T08:56:43;97150.66;;;3.57;60.35
23229;BME280;11783;50.350;6.576;2023-04-04T08:59:08;97157.31;;;2.91;60.65
23229;BME280;11783;50.350;6.576;2023-04-04T09:01:39;97152.47;;;3.34;59.71
23229;BME280;11783;50.350;6.576;2023-04-04T09:04:05;97149.28;;;3.84;65.26
23229;BME280;11783;50.350;6.576;2023-04-04T09:06:33;97147.41;;;3.93;58.13
23229;BME280;11783;50.350;6.576;2023-04-04T09:08:59;97140.91;;;3.43;58.46
23229;BME280;11783;50.350;6.576;2023-04-04T09:11:26;97147.72;;;3.29;58.02
23229;BME280;11783;50.350;6.576;2023-04-04T09:13:53;97144.56;;;3.11;56.82
23229;BME280;11783;50.350;6.576;2023-04-04T09:16:20;97139.38;;;3.03;59.09
23229;BME280;11783;50.350;6.576;2023-04-04T09:18:46;97132.59;;;2.78;57.53
23229;BME280;11783;50.350;6.576;2023-04-04T09:21:12;97132.94;;;3.37;62.09
23229;BME280;11783;50.350;6.576;2023-04-04T09:23:38;97129.34;;;3.29;58.62
23229;BME280;11783;50.350;6.576;2023-04-04T09:26:04;97124.03;;;3.15;59.09
23229;BME280;11783;50.350;6.576;2023-04-04T09:28:30;97128.47;;;2.52;58.50
23229;BME280;11783;50.350;6.576;2023-04-04T09:30:59;97128.22;;;2.70;60.13
23229;BME280;11783;50.350;6.576;2023-04-04T09:33:25;97124.22;;;1.96;58.47
23229;BME280;11783;50.350;6.576;2023-04-04T09:35:55;97122.47;;;2.35;63.90
23229;BME280;11783;50.350;6.576;2023-04-04T09:38:23;97120.22;;;2.94;56.32
23229;BME280;11783;50.350;6.576;2023-04-04T09:40:49;97113.38;;;3.39;57.47
23229;BME280;11783;50.350;6.576;2023-04-04T09:43:17;97111.84;;;3.22;53.97
23229;BME280;11783;50.350;6.576;2023-04-04T09:45:44;97109.06;;;3.15;58.12
23229;BME280;11783;50.350;6.576;2023-04-04T09:48:10;97113.91;;;3.49;55.74
23229;BME280;11783;50.350;6.576;2023-04-04T09:50:36;97115.41;;;3.29;57.99
23229;BME280;11783;50.350;6.576;2023-04-04T09:53:15;97124.56;;;3.56;56.65
23229;BME280;11783;50.350;6.576;2023-04-04T09:55:41;97117.81;;;3.76;56.85
23229;BME280;11783;50.350;6.576;2023-04-04T09:58:14;97121.44;;;3.75;54.43
23229;BME280;11783;50.350;6.576;2023-04-04T10:00:40;97116.56;;;4.02;58.22
23229;BME280;11783;50.350;6.576;2023-04-04T10:03:10;97113.41;;;4.36;54.92
23229;BME280;11783;50.350;6.576;2023-04-04T10:05:36;97109.34;;;4.18;53.97
23229;BME280;11783;50.350;6.576;2023-04-04T10:08:14;97102.41;;;3.88;53.71
23229;BME280;11783;50.350;6.576;2023-04-04T10:10:54;97108.66;;;4.61;53.17
23229;BME280;11783;50.350;6.576;2023-04-04T10:13:27;97121.09;;;4.08;51.20
23229;BME280;11783;50.350;6.576;2023-04-04T10:15:55;97110.03;;;3.83;54.07
23229;BME280;11783;50.350;6.576;2023-04-04T10:18:23;97116.22;;;4.19;51.11
23229;BME280;11783;50.350;6.576;2023-04-04T10:20:49;97114.50;;;4.41;51.96
23229;BME280;11783;50.350;6.576;2023-04-04T10:23:15;97118.31;;;4.68;53.02
23229;BME280;11783;50.350;6.576;2023-04-04T10:25:41;97112.41;;;4.22;52.85
23229;BME280;11783;50.350;6.576;2023-04-04T10:28:07;97099.88;;;4.68;55.25
23229;BME280;11783;50.350;6.576;2023-04-04T10:30:39;97110.41;;;5.26;55.17
23229;BME280;11783;50.350;6.576;2023-04-04T10:33:09;97107.69;;;4.98;53.05
23229;BME280;11783;50.350;6.576;2023-04-04T10:35:43;97106.59;;;5.28;53.65
23229;BME280;11783;50.350;6.576;2023-04-04T10:38:11;97108.31;;;5.85;52.35
23229;BME280;11783;50.350;6.576;2023-04-04T10:40:39;97117.00;;;5.58;51.53
23229;BME280;11783;50.350;6.576;2023-04-04T10:43:08;97112.09;;;5.55;46.76
23229;BME280;11783;50.350;6.576;2023-04-04T10:45:35;97108.41;;;5.49;46.84
23229;BME280;11783;50.350;6.576;2023-04-04T10:48:07;97109.22;;;5.07;47.83
23229;BME280;11783;50.350;6.576;2023-04-04T10:50:34;97110.28;;;5.55;49.19
23229;BME280;11783;50.350;6.576;2023-04-04T10:53:00;97102.78;;;5.80;50.29
23229;BME280;11783;50.350;6.576;2023-04-04T10:55:29;97113.28;;;6.29;50.58
23229;BME280;11783;50.350;6.576;2023-04-04T10:57:56;97105.31;;;6.16;46.26
23229;BME280;11783;50.350;6.576;2023-04-04T11:00:22;97107.03;;;6.02;45.57
23229;BME280;11783;50.350;6.576;2023-04-04T11:03:00;97109.63;;;5.74;46.51
23229;BME280;11783;50.350;6.576;2023-04-04T11:05:34;97098.81;;;6.19;49.03
23229;BME280;11783;50.350;6.576;2023-04-04T11:08:25;97089.91;;;6.67;48.74
23229;BME280;11783;50.350;6.576;2023-04-04T11:10:53;97089.03;;;7.02;47.34
23229;BME280;11783;50.350;6.576;2023-04-04T11:13:19;97095.03;;;6.76;48.60
23229;BME280;11783;50.350;6.576;2023-04-04T11:16:04;97086.72;;;6.72;44.47
23229;BME280;11783;50.350;6.576;2023-04-04T11:21:03;97080.00;;;6.76;43.97
23229;BME280;11783;50.350;6.576;2023-04-04T11:26:11;97077.69;;;6.53;43.65
23229;BME280;11783;50.350;6.576;2023-04-04T11:41:51;97064.06;;;7.24;47.05
23229;BME280;11783;50.350;6.576;2023-04-04T11:44:18;97066.06;;;5.78;45.83
23229;BME280;11783;50.350;6.576;2023-04-04T11:46:45;97059.47;;;6.30;45.73
23229;BME280;11783;50.350;6.576;2023-04-04T11:49:15;97066.13;;;6.61;44.15
23229;BME280;11783;50.350;6.576;2023-04-04T11:51:41;97059.22;;;6.53;40.24
23229;BME280;11783;50.350;6.576;2023-04-04T11:54:16;97050.34;;;6.87;46.70
23229;BME280;11783;50.350;6.576;2023-04-04T11:56:42;97052.28;;;7.26;43.76
23229;BME280;11783;50.350;6.576;2023-04-04T11:59:11;97043.72;;;7.24;45.84
23229;BME280;11783;50.350;6.576;2023-04-04T12:01:38;97038.88;;;7.54;42.44
23229;BME280;11783;50.350;6.576;2023-04-04T12:04:03;97033.38;;;7.56;45.63
23229;BME280;11783;50.350;6.576;2023-04-04T12:06:29;97035.00;;;7.83;43.75
23229;BME280;11783;50.350;6.576;2023-04-04T12:09:01;97038.25;;;7.85;43.03
23229;BME280;11783;50.350;6.576;2023-04-04T12:11:37;97041.22;;;8.22;41.56
23229;BME280;11783;50.350;6.576;2023-04-04T12:14:03;97037.75;;;8.15;43.94
23229;BME280;11783;50.350;6.576;2023-04-04T12:16:29;97040.22;;;7.04;41.98
23229;BME280;11783;50.350;6.576;2023-04-04T12:18:55;97037.25;;;7.27;43.74
23229;BME280;11783;50.350;6.576;2023-04-04T12:21:21;97041.91;;;7.71;41.77
23229;BME280;11783;50.350;6.576;2023-04-04T12:23:46;97029.50;;;7.12;43.78
23229;BME280;11783;50.350;6.576;2023-04-04T12:26:15;97029.09;;;7.81;46.04
23229;BME280;11783;50.350;6.576;2023-04-04T12:28:42;97015.75;;;8.21;42.30
23229;BME280;11783;50.350;6.576;2023-04-04T12:31:10;97021.84;;;8.41;41.05
23229;BME280;11783;50.350;6.576;2023-04-04T12:33:39;97020.56;;;8.50;41.89
23229;BME280;11783;50.350;6.576;2023-04-04T12:36:05;97019.22;;;8.79;42.55
23229;BME280;11783;50.350;6.576;2023-04-04T12:38:32;97016.56;;;8.79;40.83
23229;BME280;11783;50.350;6.576;2023-04-04T12:40:59;97007.16;;;8.84;38.33
23229;BME280;11783;50.350;6.576;2023-04-04T12:43:27;97014.31;;;8.38;40.86
23229;BME280;11783;50.350;6.576;2023-04-04T12:45:56;97004.66;;;8.50;39.74
23229;BME280;11783;50.350;6.576;2023-04-04T12:48:27;96998.22;;;8.78;42.41
23229;BME280;11783;50.350;6.576;2023-04-04T12:50:58;97011.56;;;8.96;40.38
23229;BME280;11783;50.350;6.576;2023-04-04T12:53:26;97003.75;;;8.76;43.76
23229;BME280;11783;50.350;6.576;2023-04-04T12:55:53;96999.69;;;9.05;41.45
23229;BME280;11783;50.350;6.576;2023-04-04T12:58:20;96998.41;;;9.15;38.96
23229;BME280;11783;50.350;6.576;2023-04-04T13:00:50;97001.91;;;9.08;38.46
23229;BME280;11783;50.350;6.576;2023-04-04T13:03:21;96993.34;;;9.06;39.43
23229;BME280;11783;50.350;6.576;2023-04-04T13:05:48;96991.13;;;9.03;37.42
23229;BME280;11783;50.350;6.576;2023-04-04T13:08:15;96985.09;;;9.46;41.00
23229;BME280;11783;50.350;6.576;2023-04-04T13:11:00;96990.88;;;9.61;39.59
23229;BME280;11783;50.350;6.576;2023-04-04T13:13:36;96986.50;;;8.54;38.34
23229;BME280;11783;50.350;6.576;2023-04-04T13:16:09;96977.00;;;9.09;40.87
23229;BME280;11783;50.350;6.576;2023-04-04T13:18:37;96985.78;;;9.60;40.37
23229;BME280;11783;50.350;6.576;2023-04-04T13:21:04;96984.28;;;9.70;39.22
23229;BME280;11783;50.350;6.576;2023-04-04T13:23:32;96978.16;;;9.70;38.97
23229;BME280;11783;50.350;6.576;2023-04-04T13:25:58;96973.59;;;9.95;40.69
23229;BME280;11783;50.350;6.576;2023-04-04T13:28:24;96979.81;;;9.64;37.78